sensor_id;sensor_type;location;lat;lon;timestamp;pressure;altitude;pressure_sealevel;temperature;humidity
56604;BME280;42486;47.478;19.036;2022-10-16T00:02:29;100747.03;;;13.78;94.22
56604;BME280;42486;47.478;19.036;2022-10-16T00:05:31;100747.50;;;13.83;93.81
56604;BME280;42486;47.478;19.036;2022-10-16T00:08:34;100739.16;;;13.78;93.81
56604;BME280;42486;47.478;19.036;2022-10-16T00:11:39;100743.31;;;13.81;95.21
56604;BME280;42486;47.478;19.036;2022-10-16T00:14:44;100739.41;;;13.75;96.27
56604;BME280;42486;47.478;19.036;2022-10-16T00:17:48;100737.59;;;13.76;94.70
56604;BME280;42486;47.478;19.036;2022-10-16T00:20:51;100739.63;;;13.72;92.39
56604;BME280;42486;47.478;19.036;2022-10-16T00:23:55;100742.25;;;13.72;93.44
56604;BME280;42486;47.478;19.036;2022-10-16T00:27:05;100748.34;;;13.73;94.63
56604;BME280;42486;47.478;19.036;2022-10-16T00:30:11;100741.41;;;13.72;94.67
56604;BME280;42486;47.478;19.036;2022-10-16T00:33:24;100751.22;;;13.70;95.00
56604;BME280;42486;47.478;19.036;2022-10-16T00:36:30;100748.97;;;13.65;93.75
56604;BME280;42486;47.478;19.036;2022-10-16T00:39:36;100756.13;;;13.63;95.45
56604;BME280;42486;47.478;19.036;2022-10-16T00:42:45;100761.63;;;13.60;95.41
56604;BME280;42486;47.478;19.036;2022-10-16T00:45:51;100763.28;;;13.61;96.12
56604;BME280;42486;47.478;19.036;2022-10-16T00:49:00;100760.66;;;13.61;93.40
56604;BME280;42486;47.478;19.036;2022-10-16T00:52:07;100758.84;;;13.61;95.28
56604;BME280;42486;47.478;19.036;2022-10-16T00:55:21;100755.91;;;13.55;96.12
56604;BME280;42486;47.478;19.036;2022-10-16T00:58:43;100758.53;;;13.55;96.45
56604;BME280;42486;47.478;19.036;2022-10-16T01:01:49;100768.66;;;13.48;98.03
56604;BME280;42486;47.478;19.036;2022-10-16T01:04:56;100777.38;;;13.37;94.76
56604;BME280;42486;47.478;19.036;2022-10-16T01:08:12;100780.41;;;13.33;95.82
56604;BME280;42486;47.478;19.036;2022-10-16T01:11:17;100782.31;;;13.31;96.50
56604;BME280;42486;47.478;19.036;2022-10-16T01:20:42;100787.00;;;13.03;93.50
56604;BME280;42486;47.478;19.036;2022-10-16T01:24:01;100786.28;;;12.90;94.30
56604;BME280;42486;47.478;19.036;2022-10-16T01:27:21;100794.75;;;12.82;96.18
56604;BME280;42486;47.478;19.036;2022-10-16T01:30:26;100798.19;;;12.71;95.71
56604;BME280;42486;47.478;19.036;2022-10-16T01:33:39;100797.44;;;12.58;96.22
56604;BME280;42486;47.478;19.036;2022-10-16T01:36:57;100800.06;;;12.58;96.34
56604;BME280;42486;47.478;19.036;2022-10-16T01:40:10;100794.41;;;12.40;96.68
56604;BME280;42486;47.478;19.036;2022-10-16T01:43:22;100799.22;;;12.22;98.03
56604;BME280;42486;47.478;19.036;2022-10-16T01:46:27;100796.91;;;12.18;99.43
56604;BME280;42486;47.478;19.036;2022-10-16T01:49:31;100803.16;;;12.04;100.00
56604;BME280;42486;47.478;19.036;2022-10-16T01:52:39;100795.34;;;11.91;100.00
56604;BME280;42486;47.478;19.036;2022-10-16T01:55:43;100804.81;;;11.81;100.00
56604;BME280;42486;47.478;19.036;2022-10-16T01:58:58;100806.41;;;11.71;100.00
56604;BME280;42486;47.478;19.036;2022-10-16T02:02:06;100810.37;;;11.63;100.00
56604;BME280;42486;47.478;19.036;2022-10-16T02:08:17;100816.31;;;11.41;100.00
56604;BME280;42486;47.478;19.036;2022-10-16T02:11:28;100821.84;;;11.37;100.00
56604;BME280;42486;47.478;19.036;2022-10-16T02:14:30;100820.28;;;11.34;100.00
56604;BME280;42486;47.478;19.036;2022-10-16T02:17:43;100824.59;;;11.22;100.00
56604;BME280;42486;47.478;19.036;2022-10-16T02:20:53;100821.75;;;11.13;100.00
56604;BME280;42486;47.478;19.036;2022-10-16T02:27:27;100801.03;;;10.84;100.00
56604;BME280;42486;47.478;19.036;2022-10-16T02:33:45;100813.47;;;10.80;100.00
56604;BME280;42486;47.478;19.036;2022-10-16T02:36:52;100817.88;;;10.80;100.00
56604;BME280;42486;47.478;19.036;2022-10-16T02:39:59;100820.59;;;10.78;100.00
56604;BME280;42486;47.478;19.036;2022-10-16T02:43:07;100825.28;;;10.73;100.00
56604;BME280;42486;47.478;19.036;2022-10-16T02:46:16;100821.28;;;10.55;100.00
56604;BME280;42486;47.478;19.036;2022-10-16T02:49:22;100828.97;;;10.44;100.00
56604;BME280;42486;47.478;19.036;2022-10-16T02:52:25;100825.19;;;10.35;100.00
56604;BME280;42486;47.478;19.036;2022-10-16T02:55:32;100829.19;;;10.41;100.00
56604;BME280;42486;47.478;19.036;2022-10-16T02:58:34;100823.22;;;10.39;100.00
56604;BME280;42486;47.478;19.036;2022-10-16T03:01:37;100829.87;;;10.30;100.00
56604;BME280;42486;47.478;19.036;2022-10-16T03:04:53;100841.25;;;10.29;100.00
56604;BME280;42486;47.478;19.036;2022-10-16T03:07:55;100836.06;;;10.14;100.00
56604;BME280;42486;47.478;19.036;2022-10-16T03:10:57;100837.50;;;10.06;100.00
56604;BME280;42486;47.478;19.036;2022-10-16T03:14:01;100836.19;;;9.99;100.00
56604;BME280;42486;47.478;19.036;2022-10-16T03:17:04;100834.41;;;9.99;100.00
56604;BME280;42486;47.478;19.036;2022-10-16T03:20:07;100843.19;;;9.98;100.00
56604;BME280;42486;47.478;19.036;2022-10-16T03:23:10;100842.25;;;9.99;100.00
56604;BME280;42486;47.478;19.036;2022-10-16T03:26:15;100838.16;;;9.95;100.00
56604;BME280;42486;47.478;19.036;2022-10-16T03:29:17;100841.34;;;9.86;100.00
56604;BME280;42486;47.478;19.036;2022-10-16T03:32:20;100850.50;;;9.79;100.00
56604;BME280;42486;47.478;19.036;2022-10-16T03:35:26;100848.72;;;9.79;100.00
56604;BME280;42486;47.478;19.036;2022-10-16T03:38:35;100857.28;;;9.81;100.00
56604;BME280;42486;47.478;19.036;2022-10-16T03:41:49;100858.81;;;9.71;100.00
56604;BME280;42486;47.478;19.036;2022-10-16T03:44:52;100861.06;;;9.63;100.00
56604;BME280;42486;47.478;19.036;2022-10-16T03:47:54;100863.94;;;9.58;100.00
56604;BME280;42486;47.478;19.036;2022-10-16T03:51:12;100870.53;;;9.64;100.00
56604;BME280;42486;47.478;19.036;2022-10-16T03:54:29;100868.97;;;9.61;100.00
56604;BME280;42486;47.478;19.036;2022-10-16T03:57:44;100871.56;;;9.61;100.00
56604;BME280;42486;47.478;19.036;2022-10-16T04:00:46;100867.19;;;9.47;100.00
56604;BME280;42486;47.478;19.036;2022-10-16T04:03:50;100872.88;;;9.40;100.00
56604;BME280;42486;47.478;19.036;2022-10-16T04:06:57;100875.69;;;9.37;100.00
56604;BME280;42486;47.478;19.036;2022-10-16T04:09:59;100874.72;;;9.38;100.00
56604;BME280;42486;47.478;19.036;2022-10-16T04:13:03;100878.84;;;9.42;100.00
56604;BME280;42486;47.478;19.036;2022-10-16T04:16:09;100881.34;;;9.43;100.00
56604;BME280;42486;47.478;19.036;2022-10-16T04:19:15;100884.41;;;9.36;100.00
56604;BME280;42486;47.478;19.036;2022-10-16T04:22:25;100884.31;;;9.23;100.00
56604;BME280;42486;47.478;19.036;2022-10-16T04:25:31;100889.88;;;9.17;100.00
56604;BME280;42486;47.478;19.036;2022-10-16T04:28:53;100882.34;;;9.12;100.00
56604;BME280;42486;47.478;19.036;2022-10-16T04:32:12;100879.00;;;9.10;100.00
56604;BME280;42486;47.478;19.036;2022-10-16T04:35:18;100889.31;;;9.12;100.00
56604;BME280;42486;47.478;19.036;2022-10-16T04:38:24;100893.06;;;9.22;100.00
56604;BME280;42486;47.478;19.036;2022-10-16T04:41:27;100885.16;;;9.23;100.00
56604;BME280;42486;47.478;19.036;2022-10-16T04:44:34;100892.84;;;9.11;100.00
56604;BME280;42486;47.478;19.036;2022-10-16T04:47:43;100891.63;;;9.02;100.00
56604;BME280;42486;47.478;19.036;2022-10-16T04:50:47;100895.97;;;9.01;100.00
56604;BME280;42486;47.478;19.036;2022-10-16T04:54:10;100898.50;;;9.03;100.00
56604;BME280;42486;47.478;19.036;2022-10-16T04:57:24;100902.31;;;8.97;100.00
56604;BME280;42486;47.478;19.036;2022-10-16T05:00:27;100910.41;;;8.93;100.00
56604;BME280;42486;47.478;19.036;2022-10-16T05:03:39;100915.09;;;9.02;100.00
56604;BME280;42486;47.478;19.036;2022-10-16T05:06:45;100918.03;;;8.96;100.00
56604;BME280;42486;47.478;19.036;2022-10-16T05:09:53;100914.13;;;8.89;100.00
56604;BME280;42486;47.478;19.036;2022-10-16T05:13:17;100909.56;;;8.92;100.00
56604;BME280;42486;47.478;19.036;2022-10-16T05:16:30;100910.41;;;8.93;100.00
56604;BME280;42486;47.478;19.036;2022-10-16T05:19:33;100915.34;;;8.97;100.00
56604;BME280;42486;47.478;19.036;2022-10-16T05:22:36;100921.13;;;9.02;100.00
56604;BME280;42486;47.478;19.036;2022-10-16T05:29:16;100917.88;;;8.99;100.00
56604;BME280;42486;47.478;19.036;2022-10-16T05:32:18;100931.63;;;9.01;100.00
56604;BME280;42486;47.478;19.036;2022-10-16T05:35:21;100933.91;;;9.07;100.00
56604;BME280;42486;47.478;19.036;2022-10-16T05:38:28;100945.37;;;9.19;100.00
56604;BME280;42486;47.478;19.036;2022-10-16T05:41:51;100937.94;;;9.13;100.00
56604;BME280;42486;47.478;19.036;2022-10-16T05:45:12;100940.44;;;9.14;100.00
56604;BME280;42486;47.478;19.036;2022-10-16T05:48:15;100944.28;;;9.23;100.00
56604;BME280;42486;47.478;19.036;2022-10-16T05:51:18;100937.31;;;9.23;100.00
56604;BME280;42486;47.478;19.036;2022-10-16T05:54:20;100936.28;;;9.26;100.00
56604;BME280;42486;47.478;19.036;2022-10-16T05:57:23;100948.41;;;9.41;100.00
56604;BME280;42486;47.478;19.036;2022-10-16T06:00:26;100952.06;;;9.53;100.00
56604;BME280;42486;47.478;19.036;2022-10-16T06:03:32;100944.81;;;9.58;100.00
56604;BME280;42486;47.478;19.036;2022-10-16T06:06:47;100945.25;;;9.65;100.00
56604;BME280;42486;47.478;19.036;2022-10-16T06:09:49;100950.56;;;9.78;100.00
56604;BME280;42486;47.478;19.036;2022-10-16T06:12:52;100961.38;;;9.86;100.00
56604;BME280;42486;47.478;19.036;2022-10-16T06:16:10;100965.41;;;10.06;100.00
56604;BME280;42486;47.478;19.036;2022-10-16T06:19:30;100973.41;;;10.17;100.00
56604;BME280;42486;47.478;19.036;2022-10-16T06:22:44;100981.44;;;10.43;100.00
56604;BME280;42486;47.478;19.036;2022-10-16T06:26:03;100980.47;;;10.85;100.00
56604;BME280;42486;47.478;19.036;2022-10-16T06:29:06;100980.81;;;10.93;100.00
56604;BME280;42486;47.478;19.036;2022-10-16T06:32:08;100985.75;;;11.11;100.00
56604;BME280;42486;47.478;19.036;2022-10-16T06:35:10;100993.84;;;11.20;100.00
56604;BME280;42486;47.478;19.036;2022-10-16T06:38:19;101006.44;;;11.28;100.00
56604;BME280;42486;47.478;19.036;2022-10-16T06:41:24;101010.97;;;11.52;100.00
56604;BME280;42486;47.478;19.036;2022-10-16T06:44:32;101019.69;;;11.65;97.75
56604;BME280;42486;47.478;19.036;2022-10-16T06:47:36;101017.03;;;11.78;98.30
56604;BME280;42486;47.478;19.036;2022-10-16T06:50:38;101017.91;;;11.91;91.43
56604;BME280;42486;47.478;19.036;2022-10-16T06:53:42;101021.28;;;12.06;89.32
56604;BME280;42486;47.478;19.036;2022-10-16T06:57:04;101028.16;;;12.20;90.00
56604;BME280;42486;47.478;19.036;2022-10-16T07:00:10;101030.47;;;12.37;87.88
56604;BME280;42486;47.478;19.036;2022-10-16T07:03:15;101031.91;;;12.41;86.54
56604;BME280;42486;47.478;19.036;2022-10-16T07:06:21;101042.28;;;12.55;86.32
56604;BME280;42486;47.478;19.036;2022-10-16T07:09:26;101041.53;;;12.53;85.85
56604;BME280;42486;47.478;19.036;2022-10-16T07:12:29;101048.44;;;12.54;84.82
56604;BME280;42486;47.478;19.036;2022-10-16T07:15:31;101043.69;;;12.72;86.39
56604;BME280;42486;47.478;19.036;2022-10-16T07:18:34;101045.91;;;12.90;85.60
56604;BME280;42486;47.478;19.036;2022-10-16T07:21:42;101057.66;;;12.97;84.71
56604;BME280;42486;47.478;19.036;2022-10-16T07:24:44;101055.31;;;13.05;83.91
56604;BME280;42486;47.478;19.036;2022-10-16T07:27:52;101058.34;;;13.12;80.86
56604;BME280;42486;47.478;19.036;2022-10-16T07:30:59;101065.00;;;13.16;80.87
56604;BME280;42486;47.478;19.036;2022-10-16T07:34:14;101077.31;;;13.15;80.96
56604;BME280;42486;47.478;19.036;2022-10-16T07:37:24;101083.97;;;13.32;80.26
56604;BME280;42486;47.478;19.036;2022-10-16T07:40:29;101080.87;;;13.27;77.25
56604;BME280;42486;47.478;19.036;2022-10-16T07:43:31;101078.25;;;13.14;78.20
56604;BME280;42486;47.478;19.036;2022-10-16T07:46:37;101078.91;;;13.05;77.57
56604;BME280;42486;47.478;19.036;2022-10-16T07:49:41;101079.56;;;13.09;77.68
56604;BME280;42486;47.478;19.036;2022-10-16T07:52:44;101080.94;;;13.02;79.03
56604;BME280;42486;47.478;19.036;2022-10-16T07:55:56;101085.72;;;13.08;78.13
56604;BME280;42486;47.478;19.036;2022-10-16T07:58:58;101090.75;;;13.11;78.38
56604;BME280;42486;47.478;19.036;2022-10-16T08:02:05;101093.56;;;13.20;77.30
56604;BME280;42486;47.478;19.036;2022-10-16T08:05:13;101095.09;;;13.36;78.90
56604;BME280;42486;47.478;19.036;2022-10-16T08:08:17;101104.31;;;13.41;76.97
56604;BME280;42486;47.478;19.036;2022-10-16T08:11:28;101103.69;;;13.38;77.66
56604;BME280;42486;47.478;19.036;2022-10-16T08:14:30;101110.00;;;13.59;78.80
56604;BME280;42486;47.478;19.036;2022-10-16T08:17:32;101105.25;;;13.64;78.84
56604;BME280;42486;47.478;19.036;2022-10-16T08:20:38;101110.06;;;13.82;78.07
56604;BME280;42486;47.478;19.036;2022-10-16T08:23:47;101113.56;;;14.05;76.57
56604;BME280;42486;47.478;19.036;2022-10-16T08:27:02;101112.63;;;14.06;73.28
56604;BME280;42486;47.478;19.036;2022-10-16T08:30:14;101129.44;;;13.92;74.47
56604;BME280;42486;47.478;19.036;2022-10-16T08:33:21;101131.78;;;13.84;75.49
56604;BME280;42486;47.478;19.036;2022-10-16T08:36:24;101137.25;;;14.16;75.51
56604;BME280;42486;47.478;19.036;2022-10-16T08:39:26;101133.78;;;14.16;74.80
56604;BME280;42486;47.478;19.036;2022-10-16T08:46:09;101140.25;;;14.23;73.57
56604;BME280;42486;47.478;19.036;2022-10-16T08:49:21;101133.53;;;14.19;75.46
56604;BME280;42486;47.478;19.036;2022-10-16T08:52:32;101137.63;;;14.34;73.95
56604;BME280;42486;47.478;19.036;2022-10-16T08:55:50;101138.87;;;14.52;74.41
56604;BME280;42486;47.478;19.036;2022-10-16T08:59:03;101140.78;;;14.62;74.44
56604;BME280;42486;47.478;19.036;2022-10-16T09:02:22;101151.50;;;14.47;72.07
56604;BME280;42486;47.478;19.036;2022-10-16T09:12:11;101149.63;;;14.72;70.58
56604;BME280;42486;47.478;19.036;2022-10-16T09:18:33;101152.09;;;15.07;71.94
56604;BME280;42486;47.478;19.036;2022-10-16T09:22:00;101143.19;;;15.31;74.18
56604;BME280;42486;47.478;19.036;2022-10-16T09:25:12;101141.03;;;15.36;69.19
56604;BME280;42486;47.478;19.036;2022-10-16T09:28:18;101142.28;;;15.53;72.27
56604;BME280;42486;47.478;19.036;2022-10-16T09:31:36;101148.47;;;15.63;70.08
56604;BME280;42486;47.478;19.036;2022-10-16T09:34:40;101146.34;;;15.57;68.69
56604;BME280;42486;47.478;19.036;2022-10-16T09:37:44;101156.13;;;15.66;67.73
56604;BME280;42486;47.478;19.036;2022-10-16T09:40:49;101151.47;;;15.70;69.75
56604;BME280;42486;47.478;19.036;2022-10-16T09:44:04;101142.47;;;15.61;68.42
56604;BME280;42486;47.478;19.036;2022-10-16T09:47:17;101137.03;;;15.85;70.47
56604;BME280;42486;47.478;19.036;2022-10-16T09:50:22;101143.19;;;16.16;69.33
56604;BME280;42486;47.478;19.036;2022-10-16T09:53:37;101144.28;;;16.35;68.09
56604;BME280;42486;47.478;19.036;2022-10-16T09:56:40;101154.50;;;16.49;65.83
56604;BME280;42486;47.478;19.036;2022-10-16T09:59:46;101161.34;;;16.61;65.20
56604;BME280;42486;47.478;19.036;2022-10-16T10:02:49;101158.56;;;16.63;67.95
56604;BME280;42486;47.478;19.036;2022-10-16T10:05:56;101172.06;;;16.69;64.74
56604;BME280;42486;47.478;19.036;2022-10-16T10:12:22;101167.97;;;17.27;61.61
56604;BME280;42486;47.478;19.036;2022-10-16T10:15:32;101160.03;;;17.36;64.00
56604;BME280;42486;47.478;19.036;2022-10-16T10:18:35;101155.47;;;17.38;62.37
56604;BME280;42486;47.478;19.036;2022-10-16T10:21:42;101150.88;;;17.41;63.15
56604;BME280;42486;47.478;19.036;2022-10-16T11:01:48;101139.06;;;18.03;58.20
56604;BME280;42486;47.478;19.036;2022-10-16T11:08:21;101133.16;;;18.19;57.40
56604;BME280;42486;47.478;19.036;2022-10-16T11:15:11;101130.72;;;18.45;58.79
56604;BME280;42486;47.478;19.036;2022-10-16T11:22:04;101132.16;;;18.77;56.37
56604;BME280;42486;47.478;19.036;2022-10-16T11:28:40;101115.53;;;18.84;55.77
56604;BME280;42486;47.478;19.036;2022-10-16T11:31:49;101120.91;;;18.92;57.49
56604;BME280;42486;47.478;19.036;2022-10-16T11:35:00;101108.50;;;18.93;53.89
56604;BME280;42486;47.478;19.036;2022-10-16T11:41:45;101106.12;;;19.00;55.43
56604;BME280;42486;47.478;19.036;2022-10-16T11:48:36;101103.78;;;19.32;54.87
56604;BME280;42486;47.478;19.036;2022-10-16T11:51:48;101108.47;;;19.39;54.84
56604;BME280;42486;47.478;19.036;2022-10-16T11:55:13;101104.91;;;19.48;54.74
56604;BME280;42486;47.478;19.036;2022-10-16T11:58:30;101115.91;;;19.53;53.81
56604;BME280;42486;47.478;19.036;2022-10-16T12:01:41;101104.84;;;19.40;52.38
56604;BME280;42486;47.478;19.036;2022-10-16T12:04:55;101105.47;;;19.33;53.13
56604;BME280;42486;47.478;19.036;2022-10-16T12:08:20;101096.91;;;19.40;54.01
56604;BME280;42486;47.478;19.036;2022-10-16T12:11:31;101093.69;;;19.54;55.53
56604;BME280;42486;47.478;19.036;2022-10-16T12:14:36;101098.72;;;19.75;52.35
56604;BME280;42486;47.478;19.036;2022-10-16T12:18:02;101088.84;;;19.85;51.67
56604;BME280;42486;47.478;19.036;2022-10-16T12:21:05;101090.84;;;19.91;53.89
56604;BME280;42486;47.478;19.036;2022-10-16T12:24:21;101078.97;;;19.95;52.76
56604;BME280;42486;47.478;19.036;2022-10-16T12:27:30;101077.66;;;19.99;52.10
56604;BME280;42486;47.478;19.036;2022-10-16T12:30:35;101091.41;;;19.95;52.68
56604;BME280;42486;47.478;19.036;2022-10-16T12:33:41;101085.66;;;20.08;51.32
56604;BME280;42486;47.478;19.036;2022-10-16T12:36:43;101086.19;;;20.11;50.62
56604;BME280;42486;47.478;19.036;2022-10-16T12:39:47;101072.88;;;20.03;50.19
56604;BME280;42486;47.478;19.036;2022-10-16T12:43:10;101082.22;;;19.89;50.15
56604;BME280;42486;47.478;19.036;2022-10-16T12:49:31;101084.59;;;19.92;52.76
56604;BME280;42486;47.478;19.036;2022-10-16T12:52:36;101084.31;;;20.04;51.84
56604;BME280;42486;47.478;19.036;2022-10-16T12:56:02;101084.87;;;20.15;52.58
56604;BME280;42486;47.478;19.036;2022-10-16T13:05:57;101095.63;;;20.06;52.02
56604;BME280;42486;47.478;19.036;2022-10-16T13:12:30;101093.78;;;20.06;52.67
56604;BME280;42486;47.478;19.036;2022-10-16T13:18:58;101095.13;;;20.10;53.47
56604;BME280;42486;47.478;19.036;2022-10-16T13:22:13;101092.59;;;20.00;52.85
56604;BME280;42486;47.478;19.036;2022-10-16T13:28:30;101100.19;;;19.95;51.79
56604;BME280;42486;47.478;19.036;2022-10-16T13:31:39;101096.75;;;20.03;50.62
56604;BME280;42486;47.478;19.036;2022-10-16T13:34:45;101096.91;;;20.01;50.30
56604;BME280;42486;47.478;19.036;2022-10-16T13:38:02;101107.69;;;20.00;51.20
56604;BME280;42486;47.478;19.036;2022-10-16T13:41:16;101102.16;;;19.93;50.89
56604;BME280;42486;47.478;19.036;2022-10-16T13:44:20;101106.16;;;19.97;52.30
56604;BME280;42486;47.478;19.036;2022-10-16T13:47:26;101105.13;;;19.90;53.04
56604;BME280;42486;47.478;19.036;2022-10-16T13:50:31;101094.50;;;19.90;51.87
56604;BME280;42486;47.478;19.036;2022-10-16T13:53:34;101101.78;;;19.88;51.25
56604;BME280;42486;47.478;19.036;2022-10-16T13:56:38;101111.34;;;19.81;52.18
56604;BME280;42486;47.478;19.036;2022-10-16T13:59:41;101105.38;;;19.79;52.17
56604;BME280;42486;47.478;19.036;2022-10-16T14:02:44;101108.09;;;19.69;53.28
56604;BME280;42486;47.478;19.036;2022-10-16T14:05:49;101110.44;;;19.72;53.50
56604;BME280;42486;47.478;19.036;2022-10-16T14:09:01;101112.34;;;19.80;52.73
56604;BME280;42486;47.478;19.036;2022-10-16T14:12:08;101114.09;;;19.71;52.36
56604;BME280;42486;47.478;19.036;2022-10-16T14:15:27;101116.78;;;19.62;52.17
56604;BME280;42486;47.478;19.036;2022-10-16T14:18:32;101106.19;;;19.62;52.53
56604;BME280;42486;47.478;19.036;2022-10-16T14:21:39;101109.28;;;19.57;51.82
56604;BME280;42486;47.478;19.036;2022-10-16T14:24:47;101109.66;;;19.62;53.18
56604;BME280;42486;47.478;19.036;2022-10-16T14:27:57;101113.62;;;19.58;52.81
56604;BME280;42486;47.478;19.036;2022-10-16T14:31:30;101108.16;;;19.59;52.61
56604;BME280;42486;47.478;19.036;2022-10-16T14:34:41;101100.75;;;19.45;52.91
56604;BME280;42486;47.478;19.036;2022-10-16T14:37:43;101101.97;;;19.33;55.37
56604;BME280;42486;47.478;19.036;2022-10-16T14:40:47;101107.66;;;19.20;55.38
56604;BME280;42486;47.478;19.036;2022-10-16T14:43:57;101110.66;;;19.07;54.89
56604;BME280;42486;47.478;19.036;2022-10-16T14:47:09;101108.25;;;19.14;54.21
56604;BME280;42486;47.478;19.036;2022-10-16T14:50:16;101113.62;;;19.04;54.59
56604;BME280;42486;47.478;19.036;2022-10-16T14:53:23;101120.22;;;18.90;54.69
56604;BME280;42486;47.478;19.036;2022-10-16T14:56:28;101123.09;;;18.79;55.40
56604;BME280;42486;47.478;19.036;2022-10-16T14:59:46;101117.53;;;18.73;55.87
56604;BME280;42486;47.478;19.036;2022-10-16T15:02:51;101112.19;;;18.55;56.40
56604;BME280;42486;47.478;19.036;2022-10-16T15:05:53;101106.50;;;18.40;58.00
56604;BME280;42486;47.478;19.036;2022-10-16T15:08:55;101102.94;;;18.21;58.21
56604;BME280;42486;47.478;19.036;2022-10-16T15:11:59;101107.47;;;18.11;58.92
56604;BME280;42486;47.478;19.036;2022-10-16T15:15:09;101106.78;;;17.99;59.70
56604;BME280;42486;47.478;19.036;2022-10-16T15:18:17;101118.63;;;17.95;61.02
56604;BME280;42486;47.478;19.036;2022-10-16T15:21:26;101120.88;;;17.80;60.82
56604;BME280;42486;47.478;19.036;2022-10-16T15:24:36;101127.25;;;17.68;61.29
56604;BME280;42486;47.478;19.036;2022-10-16T15:27:41;101132.94;;;17.54;62.47
56604;BME280;42486;47.478;19.036;2022-10-16T15:30:46;101136.44;;;17.45;63.54
56604;BME280;42486;47.478;19.036;2022-10-16T15:33:51;101129.88;;;17.29;65.11
56604;BME280;42486;47.478;19.036;2022-10-16T15:36:58;101131.81;;;17.17;65.58
56604;BME280;42486;47.478;19.036;2022-10-16T15:40:05;101142.50;;;17.06;65.47
56604;BME280;42486;47.478;19.036;2022-10-16T15:43:08;101142.72;;;16.93;67.01
56604;BME280;42486;47.478;19.036;2022-10-16T15:46:13;101141.31;;;16.80;67.74
56604;BME280;42486;47.478;19.036;2022-10-16T15:49:18;101143.31;;;16.66;68.56
56604;BME280;42486;47.478;19.036;2022-10-16T15:52:20;101142.84;;;16.51;69.52
56604;BME280;42486;47.478;19.036;2022-10-16T15:55:23;101140.53;;;16.37;70.12
56604;BME280;42486;47.478;19.036;2022-10-16T15:58:27;101145.91;;;16.26;71.94
56604;BME280;42486;47.478;19.036;2022-10-16T16:01:38;101135.53;;;16.13;72.92
56604;BME280;42486;47.478;19.036;2022-10-16T16:04:44;101134.91;;;16.00;75.49
56604;BME280;42486;47.478;19.036;2022-10-16T16:07:46;101149.25;;;15.86;78.13
56604;BME280;42486;47.478;19.036;2022-10-16T16:10:58;101152.50;;;15.78;80.10
56604;BME280;42486;47.478;19.036;2022-10-16T16:14:02;101162.41;;;15.54;81.24
56604;BME280;42486;47.478;19.036;2022-10-16T16:17:07;101167.00;;;15.40;82.28
56604;BME280;42486;47.478;19.036;2022-10-16T16:20:10;101175.16;;;15.26;84.62
56604;BME280;42486;47.478;19.036;2022-10-16T16:23:19;101180.19;;;15.18;85.80
56604;BME280;42486;47.478;19.036;2022-10-16T16:26:25;101188.34;;;15.04;87.25
56604;BME280;42486;47.478;19.036;2022-10-16T16:33:03;101187.66;;;14.79;89.81
56604;BME280;42486;47.478;19.036;2022-10-16T16:36:15;101192.31;;;14.64;92.11
56604;BME280;42486;47.478;19.036;2022-10-16T16:39:18;101200.25;;;14.51;92.89
56604;BME280;42486;47.478;19.036;2022-10-16T16:42:20;101202.87;;;14.40;93.09
56604;BME280;42486;47.478;19.036;2022-10-16T16:48:51;101207.38;;;14.16;95.19
56604;BME280;42486;47.478;19.036;2022-10-16T16:51:55;101213.28;;;14.06;96.35
56604;BME280;42486;47.478;19.036;2022-10-16T16:54:57;101214.81;;;13.98;97.66
56604;BME280;42486;47.478;19.036;2022-10-16T16:57:59;101213.72;;;13.89;98.97
56604;BME280;42486;47.478;19.036;2022-10-16T17:01:02;101219.31;;;13.84;98.79
56604;BME280;42486;47.478;19.036;2022-10-16T17:04:20;101228.38;;;13.80;99.38
56604;BME280;42486;47.478;19.036;2022-10-16T17:07:24;101227.88;;;13.75;99.90
56604;BME280;42486;47.478;19.036;2022-10-16T17:10:32;101235.34;;;13.69;100.00
56604;BME280;42486;47.478;19.036;2022-10-16T17:13:40;101245.25;;;13.65;100.00
56604;BME280;42486;47.478;19.036;2022-10-16T17:16:43;101250.72;;;13.62;100.00
56604;BME280;42486;47.478;19.036;2022-10-16T17:19:49;101249.56;;;13.53;100.00
56604;BME280;42486;47.478;19.036;2022-10-16T17:22:51;101246.66;;;13.45;100.00
56604;BME280;42486;47.478;19.036;2022-10-16T17:25:54;101261.28;;;13.36;100.00
56604;BME280;42486;47.478;19.036;2022-10-16T17:29:03;101261.59;;;13.32;100.00
56604;BME280;42486;47.478;19.036;2022-10-16T17:32:06;101271.03;;;13.21;100.00
56604;BME280;42486;47.478;19.036;2022-10-16T17:35:08;101266.75;;;13.20;100.00
56604;BME280;42486;47.478;19.036;2022-10-16T17:38:22;101270.63;;;13.15;100.00
56604;BME280;42486;47.478;19.036;2022-10-16T17:41:27;101272.72;;;13.10;100.00
56604;BME280;42486;47.478;19.036;2022-10-16T17:44:30;101276.72;;;13.03;100.00
56604;BME280;42486;47.478;19.036;2022-10-16T17:47:34;101278.81;;;12.97;100.00
56604;BME280;42486;47.478;19.036;2022-10-16T17:50:40;101286.28;;;12.91;100.00
56604;BME280;42486;47.478;19.036;2022-10-16T17:53:42;101288.91;;;12.91;100.00
56604;BME280;42486;47.478;19.036;2022-10-16T17:56:48;101285.44;;;12.90;100.00
56604;BME280;42486;47.478;19.036;2022-10-16T18:00:03;101292.66;;;12.87;100.00
56604;BME280;42486;47.478;19.036;2022-10-16T18:03:08;101296.47;;;12.83;100.00
56604;BME280;42486;47.478;19.036;2022-10-16T18:06:12;101299.38;;;12.78;100.00
56604;BME280;42486;47.478;19.036;2022-10-16T18:09:18;101298.97;;;12.71;100.00